createdAt,value
2019-03-06T00:02:25.902Z,48.60
2019-03-06T00:04:56.190Z,48.60
2019-03-06T00:07:26.389Z,48.70
2019-03-06T00:09:58.136Z,48.70
2019-03-06T00:12:28.671Z,48.80
2019-03-06T00:14:58.808Z,48.70
2019-03-06T00:17:29.026Z,48.50
2019-03-06T00:19:59.470Z,48.30
2019-03-06T00:22:29.730Z,48.10
2019-03-06T00:25:00.421Z,48.00
2019-03-06T00:27:30.570Z,47.80
2019-03-06T00:30:01.920Z,47.70
2019-03-06T00:32:32.224Z,47.70
2019-03-06T00:35:05.443Z,47.70
2019-03-06T00:37:35.795Z,47.50
2019-03-06T00:40:12.626Z,47.40
2019-03-06T00:42:46.322Z,47.30
2019-03-06T00:45:16.694Z,47.40
2019-03-06T00:47:47.083Z,47.30
2019-03-06T00:50:17.940Z,47.20
2019-03-06T00:52:48.370Z,47.20
2019-03-06T00:55:19.457Z,47.30
2019-03-06T00:57:49.988Z,47.20
2019-03-06T01:00:22.102Z,47.20
2019-03-06T01:02:52.280Z,47.20
2019-03-06T01:05:22.622Z,47.30
2019-03-06T01:07:52.751Z,47.20
2019-03-06T01:10:23.923Z,47.20
2019-03-06T01:12:54.208Z,47.10
2019-03-06T01:15:25.004Z,47.10
2019-03-06T01:17:55.485Z,47.10
2019-03-06T01:20:26.018Z,47.20
2019-03-06T01:22:56.221Z,47.20
2019-03-06T01:25:26.530Z,47.30
2019-03-06T01:27:57.663Z,47.20
2019-03-06T01:30:28.063Z,47.30
2019-03-06T01:33:03.925Z,47.20
2019-03-06T01:35:46.630Z,47.20
2019-03-06T01:38:36.292Z,47.10
2019-03-06T01:41:25.617Z,47.10
2019-03-06T01:44:00.634Z,47.30
2019-03-06T01:46:32.000Z,47.20
2019-03-06T01:49:02.295Z,47.30
2019-03-06T01:51:33.438Z,47.20
2019-03-06T01:54:03.769Z,47.20
2019-03-06T01:56:34.161Z,47.00
2019-03-06T01:59:04.667Z,47.20
2019-03-06T02:01:36.093Z,46.70
2019-03-06T02:04:06.505Z,46.60
2019-03-06T02:06:36.759Z,46.40
2019-03-06T02:09:08.836Z,46.50
2019-03-06T02:11:39.011Z,46.50
2019-03-06T02:14:09.275Z,46.60
2019-03-06T02:16:39.672Z,46.50
2019-03-06T02:19:09.924Z,46.30
2019-03-06T02:21:40.190Z,46.30
2019-03-06T02:24:10.634Z,46.40
2019-03-06T02:26:40.845Z,46.30
2019-03-06T02:29:12.196Z,46.30
2019-03-06T02:31:42.570Z,46.30
2019-03-06T02:34:14.181Z,46.30
2019-03-06T02:36:44.362Z,46.30
2019-03-06T02:39:14.944Z,46.30
2019-03-06T02:41:45.319Z,46.30
2019-03-06T02:44:15.632Z,46.30
2019-03-06T02:46:45.863Z,46.30
2019-03-06T02:49:16.200Z,46.30
2019-03-06T02:51:46.513Z,46.30
2019-03-06T02:54:16.715Z,47.10
2019-03-06T02:56:47.562Z,46.50
2019-03-06T02:59:26.491Z,46.50
2019-03-06T03:02:01.950Z,46.40
2019-03-06T03:04:43.437Z,46.40
2019-03-06T03:07:16.480Z,46.30
2019-03-06T03:09:46.734Z,46.30
2019-03-06T03:12:18.601Z,46.40
2019-03-06T03:14:52.134Z,46.40
2019-03-06T03:17:22.525Z,46.40
2019-03-06T03:19:53.184Z,46.30
2019-03-06T03:22:23.425Z,46.30
2019-03-06T03:24:53.946Z,46.10
2019-03-06T03:27:24.340Z,46.00
2019-03-06T03:29:55.737Z,46.00
2019-03-06T03:32:26.246Z,45.70
2019-03-06T03:34:57.026Z,45.70
2019-03-06T03:37:28.285Z,45.70
2019-03-06T03:39:58.610Z,45.70
2019-03-06T03:42:29.411Z,45.70
2019-03-06T03:45:00.031Z,45.50
2019-03-06T03:47:30.313Z,45.40
2019-03-06T03:50:01.152Z,45.50
2019-03-06T03:52:31.726Z,45.50
2019-03-06T03:55:03.223Z,45.50
2019-03-06T03:57:35.104Z,45.50
2019-03-06T04:00:09.175Z,45.50
2019-03-06T04:02:39.528Z,45.40
2019-03-06T04:05:11.018Z,45.40
2019-03-06T04:07:41.744Z,45.50
2019-03-06T04:10:13.012Z,45.50
2019-03-06T04:12:43.268Z,45.40
2019-03-06T04:15:13.600Z,45.40
2019-03-06T04:17:43.855Z,45.50
2019-03-06T04:20:14.073Z,45.50
2019-03-06T04:22:44.272Z,45.50
2019-03-06T04:25:14.693Z,45.50
2019-03-06T04:27:45.290Z,45.60
2019-03-06T04:30:15.529Z,45.60
2019-03-06T04:32:46.247Z,45.50
2019-03-06T04:35:17.442Z,45.50
2019-03-06T04:37:47.927Z,45.40
2019-03-06T04:40:19.145Z,46.30
2019-03-06T04:42:49.675Z,45.50
2019-03-06T04:45:19.888Z,45.60
2019-03-06T04:47:50.018Z,46.20
2019-03-06T04:50:20.304Z,45.30
2019-03-06T04:53:10.029Z,45.30
2019-03-06T04:55:41.567Z,45.20
2019-03-06T04:58:11.722Z,45.10
2019-03-06T05:00:41.828Z,45.00
2019-03-06T05:03:12.154Z,44.90
2019-03-06T05:05:42.655Z,44.90
2019-03-06T05:08:12.830Z,44.80
2019-03-06T05:10:43.055Z,44.90
2019-03-06T05:13:14.536Z,44.90
2019-03-06T05:15:44.714Z,45.00
2019-03-06T05:18:23.946Z,44.90
2019-03-06T05:20:54.028Z,45.00
2019-03-06T05:23:24.235Z,44.90
2019-03-06T05:25:54.672Z,44.90
2019-03-06T05:28:25.112Z,45.00
2019-03-06T05:30:55.242Z,44.70
2019-03-06T05:33:25.798Z,44.80
2019-03-06T05:36:50.633Z,44.80
2019-03-06T05:39:20.919Z,44.90
2019-03-06T05:41:51.554Z,44.80
2019-03-06T05:44:21.749Z,44.80
2019-03-06T05:46:52.309Z,44.80
2019-03-06T05:49:22.446Z,44.70
2019-03-06T05:51:52.624Z,44.70
2019-03-06T05:54:22.982Z,44.70
2019-03-06T05:56:53.496Z,45.10
2019-03-06T05:59:23.632Z,44.50
2019-03-06T06:01:54.355Z,44.60
2019-03-06T06:04:25.524Z,44.50
2019-03-06T06:06:56.421Z,44.40
2019-03-06T06:09:26.933Z,44.50
2019-03-06T06:11:57.217Z,44.40
2019-03-06T06:14:27.350Z,44.40
2019-03-06T06:16:59.505Z,44.50
2019-03-06T06:19:30.035Z,44.60
2019-03-06T06:22:09.205Z,44.60
2019-03-06T06:24:39.281Z,44.60
2019-03-06T06:27:09.509Z,44.60
2019-03-06T06:29:39.803Z,44.60
2019-03-06T06:32:10.059Z,44.50
2019-03-06T06:34:40.662Z,44.70
2019-03-06T06:37:11.886Z,44.70
2019-03-06T06:39:43.935Z,45.20
2019-03-06T06:42:15.834Z,45.60
2019-03-06T06:44:46.489Z,45.50
2019-03-06T06:47:16.715Z,45.40
2019-03-06T06:49:47.535Z,45.50
2019-03-06T06:52:39.694Z,45.50
2019-03-06T06:55:20.015Z,45.60
2019-03-06T06:58:31.547Z,45.50
2019-03-06T07:01:26.317Z,45.60
2019-03-06T07:04:50.606Z,45.80
2019-03-06T07:07:43.846Z,46.00
2019-03-06T07:10:35.800Z,46.10
2019-03-06T07:13:20.636Z,46.20
2019-03-06T07:16:10.621Z,46.70
2019-03-06T07:19:02.458Z,46.20
2019-03-06T07:21:38.618Z,46.30
2019-03-06T07:24:38.939Z,46.30
2019-03-06T07:27:25.187Z,46.40
2019-03-06T07:30:21.393Z,46.20
2019-03-06T07:33:28.787Z,46.40
2019-03-06T07:36:21.033Z,46.40
2019-03-06T07:38:57.791Z,46.50
2019-03-06T07:41:55.811Z,46.50
2019-03-06T07:44:47.927Z,46.40
2019-03-06T07:47:28.017Z,46.20
2019-03-06T07:50:26.551Z,46.90
2019-03-06T07:54:11.890Z,46.20
2019-03-06T07:56:59.325Z,46.30
2019-03-06T07:59:31.558Z,46.20
2019-03-06T08:02:08.636Z,46.40
2019-03-06T08:04:39.858Z,46.20
2019-03-06T08:07:13.955Z,46.70
2019-03-06T08:09:44.955Z,46.60
2019-03-06T08:12:32.942Z,46.70
2019-03-06T08:15:24.922Z,47.00
2019-03-06T08:18:13.174Z,47.00
2019-03-06T08:21:11.366Z,46.90
2019-03-06T08:23:55.270Z,46.90
2019-03-06T08:26:25.617Z,46.90
2019-03-06T08:28:56.062Z,46.90
2019-03-06T08:31:31.763Z,46.80
2019-03-06T08:34:01.928Z,46.90
2019-03-06T08:36:33.705Z,47.00
2019-03-06T08:39:04.429Z,47.10
2019-03-06T08:41:36.891Z,47.20
2019-03-06T08:44:07.082Z,47.10
2019-03-06T08:46:47.161Z,47.20
2019-03-06T08:49:42.250Z,47.20
2019-03-06T08:52:34.166Z,47.30
2019-03-06T08:55:11.243Z,47.30
2019-03-06T08:58:03.402Z,47.30
2019-03-06T09:00:48.290Z,47.30
2019-03-06T09:03:37.434Z,47.30
2019-03-06T09:06:36.150Z,47.50
2019-03-06T09:09:41.374Z,47.50
2019-03-06T09:12:42.019Z,47.60
2019-03-06T09:15:24.908Z,47.70
2019-03-06T09:18:10.472Z,47.60
2019-03-06T09:21:00.545Z,47.60
2019-03-06T09:23:54.819Z,47.90
2019-03-06T09:26:35.452Z,47.80
2019-03-06T09:29:18.943Z,47.80
2019-03-06T09:32:09.283Z,47.90
2019-03-06T09:34:47.734Z,47.90
2019-03-06T09:37:36.965Z,48.20
2019-03-06T09:40:32.035Z,48.30
2019-03-06T09:43:33.255Z,48.10
2019-03-06T09:46:26.447Z,48.10
2019-03-06T09:49:21.859Z,48.00
2019-03-06T09:52:02.593Z,47.70
2019-03-06T09:55:10.011Z,47.50
2019-03-06T09:57:57.591Z,47.30
2019-03-06T10:00:49.468Z,47.20
2019-03-06T10:03:38.364Z,47.00
2019-03-06T10:06:24.403Z,46.90
2019-03-06T10:09:25.780Z,47.00
2019-03-06T10:12:25.060Z,47.00
2019-03-06T10:15:19.783Z,46.90
2019-03-06T10:18:00.521Z,46.80
2019-03-06T10:20:32.964Z,46.60
2019-03-06T10:23:03.261Z,46.60
2019-03-06T10:25:33.454Z,46.60
2019-03-06T10:28:06.597Z,46.40
2019-03-06T10:30:36.531Z,46.30
2019-03-06T10:33:07.087Z,46.30
2019-03-06T10:35:37.556Z,46.30
2019-03-06T10:38:08.311Z,46.30
2019-03-06T10:40:40.679Z,46.20
2019-03-06T10:43:11.984Z,46.20
2019-03-06T10:45:42.962Z,46.30
2019-03-06T10:48:13.193Z,46.40
2019-03-06T10:50:44.610Z,46.70
2019-03-06T10:53:16.734Z,46.80
2019-03-06T10:55:47.593Z,46.90
2019-03-06T10:58:18.185Z,47.00
2019-03-06T11:00:53.212Z,47.00
2019-03-06T11:03:28.885Z,47.00
2019-03-06T11:05:59.134Z,46.90
2019-03-06T11:08:29.484Z,47.10
2019-03-06T11:10:59.777Z,47.10
2019-03-06T11:13:29.901Z,47.10
2019-03-06T11:16:00.379Z,47.00
2019-03-06T11:18:30.466Z,47.00
2019-03-06T11:21:01.559Z,47.10
2019-03-06T11:23:32.859Z,47.10
2019-03-06T11:26:03.047Z,47.20
2019-03-06T11:28:33.901Z,47.30
2019-03-06T11:31:04.209Z,47.40
2019-03-06T11:33:36.795Z,47.60
2019-03-06T11:36:07.201Z,47.40
2019-03-06T11:38:37.837Z,47.30
2019-03-06T11:41:08.242Z,47.10
2019-03-06T11:43:38.413Z,46.90
2019-03-06T11:46:10.448Z,46.70
2019-03-06T11:48:40.611Z,46.40
2019-03-06T11:51:10.869Z,46.60
2019-03-06T11:53:41.334Z,46.20
2019-03-06T11:56:11.514Z,46.20
2019-03-06T11:58:41.684Z,46.10
2019-03-06T12:01:14.697Z,46.00
2019-03-06T12:03:44.987Z,45.90
2019-03-06T12:06:15.189Z,45.90
2019-03-06T12:08:45.815Z,45.80
2019-03-06T12:11:16.470Z,45.80
2019-03-06T12:13:47.218Z,45.70
2019-03-06T12:16:20.097Z,45.70
2019-03-06T12:18:50.610Z,45.70
2019-03-06T12:21:21.237Z,45.60
2019-03-06T12:23:51.467Z,45.60
2019-03-06T12:26:21.572Z,45.50
2019-03-06T12:28:51.853Z,45.60
2019-03-06T12:31:23.491Z,45.70
2019-03-06T12:33:53.694Z,45.80
2019-03-06T12:36:23.978Z,45.90
2019-03-06T12:38:54.350Z,46.00
2019-03-06T12:41:24.570Z,46.00
2019-03-06T12:43:54.925Z,45.90
2019-03-06T12:46:27.934Z,46.00
2019-03-06T12:49:04.253Z,46.30
2019-03-06T12:51:36.331Z,46.30
2019-03-06T12:54:07.800Z,46.40
2019-03-06T12:56:38.031Z,46.50
2019-03-06T12:59:08.350Z,46.40
2019-03-06T13:01:39.656Z,46.60
2019-03-06T13:04:11.037Z,46.80
2019-03-06T13:06:41.307Z,46.90
2019-03-06T13:09:19.635Z,46.80
2019-03-06T13:11:49.696Z,46.90
2019-03-06T13:14:20.102Z,46.80
2019-03-06T13:16:50.906Z,46.80
2019-03-06T13:19:21.160Z,46.80
2019-03-06T13:21:51.610Z,46.80
2019-03-06T13:24:22.061Z,46.60
2019-03-06T13:26:53.984Z,46.50
2019-03-06T13:29:25.796Z,46.40
2019-03-06T13:31:57.678Z,46.20
2019-03-06T13:34:50.376Z,46.00
2019-03-06T13:37:15.623Z,45.80
2019-03-06T13:39:47.053Z,45.70
2019-03-06T13:42:18.187Z,45.60
2019-03-06T13:44:48.392Z,45.70
2019-03-06T13:47:20.001Z,45.50
2019-03-06T13:49:50.131Z,45.30
2019-03-06T13:52:20.296Z,45.30
2019-03-06T13:54:51.160Z,45.30
2019-03-06T13:57:22.480Z,45.30
2019-03-06T13:59:52.779Z,45.20
2019-03-06T14:02:23.051Z,45.20
2019-03-06T14:04:53.704Z,45.20
2019-03-06T14:07:24.362Z,45.20
2019-03-06T14:09:54.805Z,45.20
2019-03-06T14:12:24.899Z,45.10
2019-03-06T14:14:55.160Z,45.20
2019-03-06T14:17:25.249Z,45.40
2019-03-06T14:19:56.289Z,45.40
2019-03-06T14:22:26.361Z,45.30
2019-03-06T14:24:58.266Z,45.30
2019-03-06T14:27:28.399Z,45.40
2019-03-06T14:29:59.121Z,45.40
2019-03-06T14:32:29.226Z,45.50
2019-03-06T14:34:59.326Z,45.60
2019-03-06T14:37:29.382Z,45.80
2019-03-06T14:40:03.033Z,45.60
2019-03-06T14:42:32.413Z,45.70
2019-03-06T14:45:03.650Z,45.80
2019-03-06T14:47:33.685Z,45.80
2019-03-06T14:50:04.018Z,45.80
2019-03-06T14:52:34.075Z,45.90
2019-03-06T14:55:04.442Z,45.90
2019-03-06T14:57:34.766Z,45.70
2019-03-06T15:00:04.935Z,45.90
2019-03-06T15:02:35.143Z,46.00
2019-03-06T15:05:05.620Z,45.90
2019-03-06T15:07:35.962Z,45.90
2019-03-06T15:10:07.734Z,45.80
2019-03-06T15:12:37.783Z,46.40
2019-03-06T15:15:08.998Z,45.70
2019-03-06T15:17:39.150Z,45.60
2019-03-06T15:20:11.669Z,45.60
2019-03-06T15:22:41.833Z,46.10
2019-03-06T15:25:14.378Z,46.20
2019-03-06T15:27:44.568Z,46.00
2019-03-06T15:30:16.003Z,45.90
2019-03-06T15:32:46.183Z,45.70
2019-03-06T15:35:16.363Z,45.50
2019-03-06T15:37:46.523Z,46.30
2019-03-06T15:40:22.214Z,45.80
2019-03-06T15:42:52.125Z,45.70
2019-03-06T15:45:25.097Z,45.70
2019-03-06T15:47:56.965Z,45.70
2019-03-06T15:50:28.175Z,45.60
2019-03-06T15:52:58.812Z,46.30
2019-03-06T15:55:28.978Z,45.60
2019-03-06T15:57:59.293Z,45.60
2019-03-06T16:00:33.382Z,45.50
2019-03-06T16:03:04.740Z,45.40
2019-03-06T16:05:35.105Z,45.40
2019-03-06T16:08:05.761Z,45.40
2019-03-06T16:10:36.185Z,45.30
2019-03-06T16:13:06.625Z,45.30
2019-03-06T16:15:36.893Z,45.30
2019-03-06T16:18:07.037Z,45.30
2019-03-06T16:20:37.335Z,45.30
2019-03-06T16:23:07.594Z,45.40
2019-03-06T16:25:40.007Z,45.40
2019-03-06T16:28:09.661Z,45.40
2019-03-06T16:30:39.887Z,45.40
2019-03-06T16:33:10.369Z,45.50
2019-03-06T16:35:40.746Z,45.50
2019-03-06T16:38:11.128Z,45.50
2019-03-06T16:40:41.316Z,45.50
2019-03-06T16:43:12.550Z,45.50
2019-03-06T16:45:42.792Z,45.50
2019-03-06T16:48:13.238Z,45.70
2019-03-06T16:50:43.551Z,45.60
2019-03-06T16:53:13.982Z,45.60
2019-03-06T16:55:44.567Z,45.90
2019-03-06T16:58:16.035Z,45.40
2019-03-06T17:00:46.886Z,45.30
2019-03-06T17:03:21.086Z,45.30
2019-03-06T17:05:52.272Z,45.20
2019-03-06T17:08:24.633Z,45.80
2019-03-06T17:10:57.613Z,45.80
2019-03-06T17:13:28.518Z,47.90
2019-03-06T17:16:00.910Z,47.40
2019-03-06T17:18:33.375Z,47.10
2019-03-06T17:21:04.027Z,46.70
2019-03-06T17:23:34.773Z,46.50
2019-03-06T17:26:05.247Z,46.40
2019-03-06T17:28:37.254Z,46.40
2019-03-06T17:31:08.364Z,46.40
2019-03-06T17:33:39.681Z,46.30
2019-03-06T17:36:11.385Z,46.20
2019-03-06T17:38:41.667Z,46.20
2019-03-06T17:41:11.986Z,46.30
2019-03-06T17:43:42.367Z,46.30
2019-03-06T17:46:31.669Z,46.40
2019-03-06T17:49:01.931Z,46.50
2019-03-06T17:51:33.822Z,46.40
2019-03-06T17:54:03.979Z,46.40
2019-03-06T17:56:35.118Z,46.40
2019-03-06T17:59:05.458Z,46.30
2019-03-06T18:01:36.811Z,46.60
2019-03-06T18:04:16.169Z,46.80
2019-03-06T18:06:46.406Z,46.80
2019-03-06T18:09:18.961Z,47.50
2019-03-06T18:11:49.337Z,46.70
2019-03-06T18:14:23.280Z,46.80
2019-03-06T18:16:54.266Z,46.80
2019-03-06T18:19:24.438Z,46.80
2019-03-06T18:21:55.706Z,46.80
2019-03-06T18:24:26.094Z,46.70
2019-03-06T18:26:56.955Z,46.60
2019-03-06T18:29:27.384Z,46.60
2019-03-06T18:31:58.863Z,46.50
2019-03-06T18:34:29.124Z,46.40
2019-03-06T18:37:00.040Z,46.60
2019-03-06T18:39:30.246Z,46.50
2019-03-06T18:42:00.627Z,46.50
2019-03-06T18:44:30.999Z,46.40
2019-03-06T18:47:01.225Z,46.50
2019-03-06T18:49:31.764Z,46.40
2019-03-06T18:52:01.800Z,46.40
2019-03-06T18:54:32.444Z,46.40
2019-03-06T18:57:02.793Z,46.10
2019-03-06T18:59:32.921Z,46.50
2019-03-06T19:02:03.147Z,46.50
2019-03-06T19:04:33.261Z,46.50
2019-03-06T19:07:03.945Z,46.60
2019-03-06T19:09:34.250Z,46.40
2019-03-06T19:12:05.302Z,46.60
2019-03-06T19:14:37.262Z,46.60
2019-03-06T19:17:09.458Z,46.40
2019-03-06T19:19:40.075Z,46.30
2019-03-06T19:22:10.616Z,46.00
2019-03-06T19:24:41.157Z,46.00
2019-03-06T19:27:11.771Z,45.80
2019-03-06T19:29:41.880Z,45.50
2019-03-06T19:32:12.090Z,45.80
2019-03-06T19:34:42.601Z,46.40
2019-03-06T19:37:13.259Z,45.40
2019-03-06T19:39:43.630Z,45.90
2019-03-06T19:42:14.063Z,45.50
2019-03-06T19:44:56.155Z,45.70
2019-03-06T19:47:26.295Z,45.80
2019-03-06T19:49:56.554Z,45.70
2019-03-06T19:52:26.994Z,46.00
2019-03-06T19:54:58.003Z,46.30
2019-03-06T19:57:30.171Z,46.40
2019-03-06T20:00:00.627Z,47.00
2019-03-06T20:02:31.178Z,46.10
2019-03-06T20:05:01.819Z,45.80
2019-03-06T20:07:33.774Z,45.70
2019-03-06T20:10:04.509Z,45.90
2019-03-06T20:12:35.191Z,45.80
2019-03-06T20:15:06.510Z,46.30
2019-03-06T20:17:36.795Z,46.30
2019-03-06T20:20:08.519Z,47.00
2019-03-06T20:22:39.400Z,47.70
2019-03-06T20:25:10.054Z,48.00
2019-03-06T20:27:40.625Z,48.60
2019-03-06T20:30:12.361Z,48.60
2019-03-06T20:32:47.295Z,48.60
2019-03-06T20:35:22.725Z,48.80
2019-03-06T20:37:54.448Z,48.90
2019-03-06T20:40:26.201Z,49.10
2019-03-06T20:42:56.598Z,49.10
2019-03-06T20:45:28.090Z,49.20
2019-03-06T20:47:58.761Z,49.10
2019-03-06T20:50:29.154Z,49.80
2019-03-06T20:53:00.742Z,49.00
2019-03-06T20:55:31.364Z,49.10
2019-03-06T20:58:02.221Z,49.00
2019-03-06T21:00:34.395Z,49.00
2019-03-06T21:03:05.010Z,49.00
2019-03-06T21:05:35.980Z,49.00
2019-03-06T21:08:06.871Z,49.00
2019-03-06T21:10:38.522Z,49.00
2019-03-06T21:13:08.875Z,48.90
2019-03-06T21:15:39.142Z,48.80
2019-03-06T21:18:11.081Z,48.80
2019-03-06T21:20:41.756Z,48.70
2019-03-06T21:23:12.390Z,48.60
2019-03-06T21:25:43.213Z,48.50
2019-03-06T21:28:15.056Z,48.50
2019-03-06T21:30:45.682Z,48.40
2019-03-06T21:33:16.849Z,48.40
2019-03-06T21:35:47.658Z,48.30
2019-03-06T21:38:18.160Z,48.30
2019-03-06T21:40:48.606Z,48.20
2019-03-06T21:43:19.469Z,48.10
2019-03-06T21:45:50.390Z,48.10
2019-03-06T21:48:21.099Z,48.10
2019-03-06T21:50:51.719Z,48.00
2019-03-06T21:53:23.657Z,48.00
2019-03-06T21:55:55.625Z,48.00
2019-03-06T21:58:26.205Z,48.00
2019-03-06T22:00:57.724Z,47.90
2019-03-06T22:03:37.187Z,47.90
2019-03-06T22:06:07.557Z,47.90
2019-03-06T22:08:38.420Z,47.80
2019-03-06T22:11:08.854Z,47.80
2019-03-06T22:13:39.573Z,47.70
2019-03-06T22:16:09.994Z,47.90
2019-03-06T22:18:43.474Z,47.90
2019-03-06T22:21:15.046Z,48.30
2019-03-06T22:23:47.244Z,48.50
2019-03-06T22:26:19.146Z,48.50
2019-03-06T22:28:55.798Z,48.30
2019-03-06T22:31:32.066Z,48.20
2019-03-06T22:34:05.225Z,48.00
2019-03-06T22:36:39.646Z,47.80
2019-03-06T22:39:14.599Z,47.60
2019-03-06T22:41:48.616Z,47.40
2019-03-06T22:44:23.613Z,47.10
2019-03-06T22:46:54.714Z,47.00
2019-03-06T22:49:26.049Z,47.00
2019-03-06T22:51:56.544Z,46.90
2019-03-06T22:54:27.363Z,46.80
2019-03-06T22:56:58.956Z,46.90
2019-03-06T22:59:29.563Z,46.90
2019-03-06T23:02:00.242Z,46.90
2019-03-06T23:04:30.679Z,46.70
2019-03-06T23:07:01.092Z,46.70
2019-03-06T23:09:31.847Z,46.60
2019-03-06T23:12:03.470Z,46.60
2019-03-06T23:14:35.977Z,46.60
2019-03-06T23:17:06.762Z,46.50
2019-03-06T23:19:37.173Z,46.60
2019-03-06T23:22:08.267Z,46.50
2019-03-06T23:24:42.097Z,46.50
2019-03-06T23:27:12.572Z,46.50
2019-03-06T23:29:44.820Z,46.60
2019-03-06T23:32:18.916Z,46.60
2019-03-06T23:34:49.175Z,46.50
2019-03-06T23:37:19.548Z,46.60
2019-03-06T23:39:50.285Z,46.50
2019-03-06T23:42:20.860Z,47.30
2019-03-06T23:44:51.374Z,46.50
2019-03-06T23:47:21.820Z,46.50
2019-03-06T23:49:52.294Z,46.50
2019-03-06T23:52:28.533Z,46.50
2019-03-06T23:54:58.724Z,46.60
2019-03-06T23:57:29.323Z,46.60
